Thursday, January 18, 2018, 4:06 PM GMT
Back to Local

CWEW, L'Assomption

Location: , , Canada Lat: 45.817
Local Time: 4:06 PM GMT (16:06 GMT) Lon: -73.433
Time Zone: GMT Elev: 68 ft

Show me the last for .
Show Coded

Time T Td Feel RH Dir Speed Gust Alt SLP Vis Weather Sky Remarks
2018-01-18 15:00 24 18 11 74 240° 10 17 - 29.94 0 None
2018-01-18 14:00 24 18 13 78 230° 10 - - 29.94 0 None
2018-01-18 13:00 23 18 13 80 230° 9 - - 29.94 0 None
2018-01-18 12:00 23 18 13 81 230° 9 - - 29.94 0 None
2018-01-18 11:00 22 18 10 81 220° 14 - - 29.94 0 None
2018-01-18 10:00 22 17 10 79 220° 13 - - 29.94 0 None
2018-01-18 09:00 22 17 11 81 210° 10 - - 29.95 0 None
2018-01-18 08:00 22 17 11 83 210° 9 - - 29.98 0 None
2018-01-18 07:00 21 17 12 83 230° 7 - - 30.00 0 None
2018-01-18 06:00 21 17 10 81 220° 10 - - 30.00 0 None
2018-01-18 05:00 21 15 10 77 220° 10 - - 30.02 0 Peak wind: 19 mph (17 kts) from 220° at 18 min
2018-01-18 04:00 20 14 5 76 220° 13 18 - 30.03 0 Peak wind: 21 mph (19 kts) from 210° at 05 min
2018-01-18 03:00 20 14 5 76 220° 14 20 - 30.05 0 Peak wind: 20 mph (18 kts) from 200° at 07 min
2018-01-18 02:00 21 14 5 73 210° 12 20 - 30.07 0 Peak wind: 19 mph (17 kts) from 220° at 47 min
2018-01-18 01:00 21 15 6 76 210° 12 18 - 30.10 0 Peak wind: 20 mph (18 kts) from 220° at 49 min
2018-01-18 00:00 20 15 10 77 210° 9 - - 30.13 0 None
2018-01-17 23:00 19 14 10 80 190° 7 - - 30.16 0 None
2018-01-17 22:00 18 13 10 80 220° 6 - - 30.18 0 None
2018-01-17 21:00 19 13 11 77 210° 6 - - 30.21 0 None
2018-01-17 20:00 20 12 13 71 210° 5 - - 30.22 0 None
2018-01-17 19:00 20 12 14 70 210° 5 - - 30.25 0 None
2018-01-17 18:00 19 12 11 71 200° 6 - - 30.28 0 None
2018-01-17 17:00 19 11 13 72 190° 3 - - 30.31 0 1-hr Precip Total: 0.01"

Support USWX by starting your Amazon purchase here.